sensor_id;sensor_type;location;lat;lon;timestamp;temperature;humidity
4725;DHT22;2376;53.544;10.226;2022-07-18T00:00:42;17.10;99.90
4725;DHT22;2376;53.544;10.226;2022-07-18T00:03:09;17.00;99.90
4725;DHT22;2376;53.544;10.226;2022-07-18T00:05:35;17.00;99.90
4725;DHT22;2376;53.544;10.226;2022-07-18T00:08:02;17.00;99.90
4725;DHT22;2376;53.544;10.226;2022-07-18T00:10:30;17.00;99.90
4725;DHT22;2376;53.544;10.226;2022-07-18T00:12:57;16.90;99.90
4725;DHT22;2376;53.544;10.226;2022-07-18T00:15:24;16.90;99.90
4725;DHT22;2376;53.544;10.226;2022-07-18T00:17:51;16.80;99.90
4725;DHT22;2376;53.544;10.226;2022-07-18T00:20:18;16.80;99.90
4725;DHT22;2376;53.544;10.226;2022-07-18T00:22:44;16.80;99.90
4725;DHT22;2376;53.544;10.226;2022-07-18T00:25:11;16.70;99.90
4725;DHT22;2376;53.544;10.226;2022-07-18T00:27:39;16.70;99.90
4725;DHT22;2376;53.544;10.226;2022-07-18T00:30:07;16.70;99.90
4725;DHT22;2376;53.544;10.226;2022-07-18T00:32:34;16.70;99.90
4725;DHT22;2376;53.544;10.226;2022-07-18T00:35:01;16.70;99.90
4725;DHT22;2376;53.544;10.226;2022-07-18T00:37:28;16.60;99.90
4725;DHT22;2376;53.544;10.226;2022-07-18T00:39:55;16.60;99.90
4725;DHT22;2376;53.544;10.226;2022-07-18T00:42:21;16.60;99.90
4725;DHT22;2376;53.544;10.226;2022-07-18T00:44:53;16.50;99.90
4725;DHT22;2376;53.544;10.226;2022-07-18T00:47:21;16.50;99.90
4725;DHT22;2376;53.544;10.226;2022-07-18T00:49:48;16.50;99.90
4725;DHT22;2376;53.544;10.226;2022-07-18T00:52:15;16.40;99.90
4725;DHT22;2376;53.544;10.226;2022-07-18T00:54:41;16.40;99.90
4725;DHT22;2376;53.544;10.226;2022-07-18T00:57:08;16.40;99.90
4725;DHT22;2376;53.544;10.226;2022-07-18T00:59:36;16.40;99.90
4725;DHT22;2376;53.544;10.226;2022-07-18T01:02:22;16.40;99.90
4725;DHT22;2376;53.544;10.226;2022-07-18T01:04:49;16.40;99.90
4725;DHT22;2376;53.544;10.226;2022-07-18T01:07:16;16.40;99.90
4725;DHT22;2376;53.544;10.226;2022-07-18T01:09:43;16.40;99.90
4725;DHT22;2376;53.544;10.226;2022-07-18T01:12:10;16.40;99.90
4725;DHT22;2376;53.544;10.226;2022-07-18T01:14:37;16.40;99.90
4725;DHT22;2376;53.544;10.226;2022-07-18T01:17:11;16.30;99.90
4725;DHT22;2376;53.544;10.226;2022-07-18T01:19:39;16.30;99.90
4725;DHT22;2376;53.544;10.226;2022-07-18T01:22:07;16.30;99.90
4725;DHT22;2376;53.544;10.226;2022-07-18T01:24:34;16.30;99.90
4725;DHT22;2376;53.544;10.226;2022-07-18T01:27:01;16.30;99.90
4725;DHT22;2376;53.544;10.226;2022-07-18T01:29:28;16.30;99.90
4725;DHT22;2376;53.544;10.226;2022-07-18T01:31:54;16.20;99.90
4725;DHT22;2376;53.544;10.226;2022-07-18T01:34:21;16.20;99.90
4725;DHT22;2376;53.544;10.226;2022-07-18T01:36:48;16.20;99.90
4725;DHT22;2376;53.544;10.226;2022-07-18T01:39:16;16.20;99.90
4725;DHT22;2376;53.544;10.226;2022-07-18T01:41:43;16.10;99.90
4725;DHT22;2376;53.544;10.226;2022-07-18T01:44:10;16.00;99.90
4725;DHT22;2376;53.544;10.226;2022-07-18T01:46:36;16.00;99.90
4725;DHT22;2376;53.544;10.226;2022-07-18T01:49:03;16.00;99.90
4725;DHT22;2376;53.544;10.226;2022-07-18T01:51:30;16.00;99.90
4725;DHT22;2376;53.544;10.226;2022-07-18T01:53:57;16.00;99.90
4725;DHT22;2376;53.544;10.226;2022-07-18T01:56:28;16.00;99.90
4725;DHT22;2376;53.544;10.226;2022-07-18T01:58:55;15.90;99.90
4725;DHT22;2376;53.544;10.226;2022-07-18T02:01:22;16.00;99.90
4725;DHT22;2376;53.544;10.226;2022-07-18T02:03:48;16.00;99.90
4725;DHT22;2376;53.544;10.226;2022-07-18T02:06:15;16.00;99.90
4725;DHT22;2376;53.544;10.226;2022-07-18T02:08:42;16.00;99.90
4725;DHT22;2376;53.544;10.226;2022-07-18T02:11:09;16.00;99.90
4725;DHT22;2376;53.544;10.226;2022-07-18T02:13:37;16.00;99.90
4725;DHT22;2376;53.544;10.226;2022-07-18T02:16:05;16.00;99.90
4725;DHT22;2376;53.544;10.226;2022-07-18T02:18:31;15.90;99.90
4725;DHT22;2376;53.544;10.226;2022-07-18T02:20:58;15.90;99.90
4725;DHT22;2376;53.544;10.226;2022-07-18T02:23:26;15.90;99.90
4725;DHT22;2376;53.544;10.226;2022-07-18T02:25:52;15.90;99.90
4725;DHT22;2376;53.544;10.226;2022-07-18T02:28:19;15.90;99.90
4725;DHT22;2376;53.544;10.226;2022-07-18T02:30:48;15.90;99.90
4725;DHT22;2376;53.544;10.226;2022-07-18T02:33:15;15.90;99.90
4725;DHT22;2376;53.544;10.226;2022-07-18T02:35:42;15.80;99.90
4725;DHT22;2376;53.544;10.226;2022-07-18T02:38:09;15.70;99.90
4725;DHT22;2376;53.544;10.226;2022-07-18T02:40:36;15.70;99.90
4725;DHT22;2376;53.544;10.226;2022-07-18T02:43:03;15.70;99.90
4725;DHT22;2376;53.544;10.226;2022-07-18T02:45:30;15.70;99.90
4725;DHT22;2376;53.544;10.226;2022-07-18T02:47:58;15.70;99.90
4725;DHT22;2376;53.544;10.226;2022-07-18T02:50:25;15.70;99.90
4725;DHT22;2376;53.544;10.226;2022-07-18T02:52:52;15.70;99.90
4725;DHT22;2376;53.544;10.226;2022-07-18T02:55:19;15.70;99.90
4725;DHT22;2376;53.544;10.226;2022-07-18T02:57:46;15.70;99.90
4725;DHT22;2376;53.544;10.226;2022-07-18T03:00:14;15.70;99.90
4725;DHT22;2376;53.544;10.226;2022-07-18T03:02:42;15.70;99.90
4725;DHT22;2376;53.544;10.226;2022-07-18T03:05:10;15.70;99.90
4725;DHT22;2376;53.544;10.226;2022-07-18T03:07:37;15.60;99.90
4725;DHT22;2376;53.544;10.226;2022-07-18T03:10:05;15.60;99.90
4725;DHT22;2376;53.544;10.226;2022-07-18T03:12:32;15.70;99.90
4725;DHT22;2376;53.544;10.226;2022-07-18T03:14:59;15.70;99.90
4725;DHT22;2376;53.544;10.226;2022-07-18T03:17:26;15.60;99.90
4725;DHT22;2376;53.544;10.226;2022-07-18T03:19:52;15.50;99.90
4725;DHT22;2376;53.544;10.226;2022-07-18T03:22:20;15.40;99.90
4725;DHT22;2376;53.544;10.226;2022-07-18T03:24:47;15.40;99.90
4725;DHT22;2376;53.544;10.226;2022-07-18T03:27:13;15.40;99.90
4725;DHT22;2376;53.544;10.226;2022-07-18T03:29:40;15.30;99.90
4725;DHT22;2376;53.544;10.226;2022-07-18T03:32:07;15.40;99.90
4725;DHT22;2376;53.544;10.226;2022-07-18T03:34:33;15.40;99.90
4725;DHT22;2376;53.544;10.226;2022-07-18T03:37:00;15.50;99.90
4725;DHT22;2376;53.544;10.226;2022-07-18T03:39:28;15.50;99.90
4725;DHT22;2376;53.544;10.226;2022-07-18T03:41:55;15.50;99.90
4725;DHT22;2376;53.544;10.226;2022-07-18T03:44:21;15.50;99.90
4725;DHT22;2376;53.544;10.226;2022-07-18T03:46:49;15.60;99.90
4725;DHT22;2376;53.544;10.226;2022-07-18T03:49:17;15.60;99.90
4725;DHT22;2376;53.544;10.226;2022-07-18T03:51:44;15.60;99.90
4725;DHT22;2376;53.544;10.226;2022-07-18T03:54:10;15.60;99.90
4725;DHT22;2376;53.544;10.226;2022-07-18T03:56:39;15.60;99.90
4725;DHT22;2376;53.544;10.226;2022-07-18T03:59:05;15.60;99.90
4725;DHT22;2376;53.544;10.226;2022-07-18T04:01:33;15.70;99.90
4725;DHT22;2376;53.544;10.226;2022-07-18T04:03:59;15.70;99.90
4725;DHT22;2376;53.544;10.226;2022-07-18T04:06:26;15.70;99.90
4725;DHT22;2376;53.544;10.226;2022-07-18T04:08:53;15.70;99.90
4725;DHT22;2376;53.544;10.226;2022-07-18T04:11:20;15.70;99.90
4725;DHT22;2376;53.544;10.226;2022-07-18T04:13:50;15.70;99.90
4725;DHT22;2376;53.544;10.226;2022-07-18T04:16:17;15.80;99.90
4725;DHT22;2376;53.544;10.226;2022-07-18T04:18:43;15.80;99.90
4725;DHT22;2376;53.544;10.226;2022-07-18T04:21:10;15.80;99.90
4725;DHT22;2376;53.544;10.226;2022-07-18T04:23:38;15.90;99.90
4725;DHT22;2376;53.544;10.226;2022-07-18T04:26:04;16.00;99.90
4725;DHT22;2376;53.544;10.226;2022-07-18T04:28:31;16.00;99.90
4725;DHT22;2376;53.544;10.226;2022-07-18T04:30:59;16.00;99.90
4725;DHT22;2376;53.544;10.226;2022-07-18T04:33:26;16.10;99.90
4725;DHT22;2376;53.544;10.226;2022-07-18T04:35:53;16.10;99.90
4725;DHT22;2376;53.544;10.226;2022-07-18T04:38:20;16.10;99.90
4725;DHT22;2376;53.544;10.226;2022-07-18T04:40:47;16.10;99.90
4725;DHT22;2376;53.544;10.226;2022-07-18T04:43:13;16.10;99.90
4725;DHT22;2376;53.544;10.226;2022-07-18T04:45:40;16.20;99.90
4725;DHT22;2376;53.544;10.226;2022-07-18T04:48:08;16.20;99.90
4725;DHT22;2376;53.544;10.226;2022-07-18T04:50:35;16.20;99.90
4725;DHT22;2376;53.544;10.226;2022-07-18T04:53:02;16.20;99.90
4725;DHT22;2376;53.544;10.226;2022-07-18T04:55:29;16.20;99.90
4725;DHT22;2376;53.544;10.226;2022-07-18T04:57:55;16.20;99.90
4725;DHT22;2376;53.544;10.226;2022-07-18T05:00:24;16.20;99.90
4725;DHT22;2376;53.544;10.226;2022-07-18T05:02:53;16.30;99.90
4725;DHT22;2376;53.544;10.226;2022-07-18T05:05:23;16.40;99.90
4725;DHT22;2376;53.544;10.226;2022-07-18T05:07:51;16.50;99.90
4725;DHT22;2376;53.544;10.226;2022-07-18T05:10:20;16.60;99.90
4725;DHT22;2376;53.544;10.226;2022-07-18T05:12:50;16.70;99.90
4725;DHT22;2376;53.544;10.226;2022-07-18T05:15:18;16.80;99.90
4725;DHT22;2376;53.544;10.226;2022-07-18T05:17:45;16.90;99.90
4725;DHT22;2376;53.544;10.226;2022-07-18T05:20:14;16.90;99.90
4725;DHT22;2376;53.544;10.226;2022-07-18T05:22:42;17.00;99.90
4725;DHT22;2376;53.544;10.226;2022-07-18T05:25:10;17.00;99.90
4725;DHT22;2376;53.544;10.226;2022-07-18T05:27:37;17.10;99.90
4725;DHT22;2376;53.544;10.226;2022-07-18T05:30:06;17.20;99.90
4725;DHT22;2376;53.544;10.226;2022-07-18T05:32:33;17.20;99.90
4725;DHT22;2376;53.544;10.226;2022-07-18T05:35:00;17.20;99.90
4725;DHT22;2376;53.544;10.226;2022-07-18T05:37:27;17.30;99.90
4725;DHT22;2376;53.544;10.226;2022-07-18T05:39:55;17.30;99.90
4725;DHT22;2376;53.544;10.226;2022-07-18T05:42:21;17.40;99.90
4725;DHT22;2376;53.544;10.226;2022-07-18T05:44:48;17.40;99.90
4725;DHT22;2376;53.544;10.226;2022-07-18T05:47:14;17.50;99.90
4725;DHT22;2376;53.544;10.226;2022-07-18T05:49:41;17.50;99.90
4725;DHT22;2376;53.544;10.226;2022-07-18T05:52:08;17.50;99.90
4725;DHT22;2376;53.544;10.226;2022-07-18T05:54:34;17.50;99.90
4725;DHT22;2376;53.544;10.226;2022-07-18T05:57:03;17.50;99.90
4725;DHT22;2376;53.544;10.226;2022-07-18T05:59:29;17.50;99.90
4725;DHT22;2376;53.544;10.226;2022-07-18T06:01:56;17.50;99.90
4725;DHT22;2376;53.544;10.226;2022-07-18T06:04:23;17.50;99.90
4725;DHT22;2376;53.544;10.226;2022-07-18T06:06:50;17.50;99.90
4725;DHT22;2376;53.544;10.226;2022-07-18T06:09:17;17.50;99.90
4725;DHT22;2376;53.544;10.226;2022-07-18T06:11:44;17.60;99.90
4725;DHT22;2376;53.544;10.226;2022-07-18T06:14:12;17.60;99.90
4725;DHT22;2376;53.544;10.226;2022-07-18T06:16:39;17.60;99.90
4725;DHT22;2376;53.544;10.226;2022-07-18T06:19:06;17.60;99.90
4725;DHT22;2376;53.544;10.226;2022-07-18T06:21:33;17.70;99.90
4725;DHT22;2376;53.544;10.226;2022-07-18T06:24:00;17.70;99.90
4725;DHT22;2376;53.544;10.226;2022-07-18T06:26:26;17.60;99.90
4725;DHT22;2376;53.544;10.226;2022-07-18T06:28:53;17.70;99.90
4725;DHT22;2376;53.544;10.226;2022-07-18T06:31:21;17.70;99.90
4725;DHT22;2376;53.544;10.226;2022-07-18T06:33:48;17.80;99.90
4725;DHT22;2376;53.544;10.226;2022-07-18T06:36:14;17.80;99.90
4725;DHT22;2376;53.544;10.226;2022-07-18T06:38:42;17.80;99.90
4725;DHT22;2376;53.544;10.226;2022-07-18T06:41:09;17.80;99.90
4725;DHT22;2376;53.544;10.226;2022-07-18T06:43:36;17.80;99.90
4725;DHT22;2376;53.544;10.226;2022-07-18T06:46:03;17.90;99.90
4725;DHT22;2376;53.544;10.226;2022-07-18T06:48:32;18.00;99.90
4725;DHT22;2376;53.544;10.226;2022-07-18T06:51:00;18.00;99.90
4725;DHT22;2376;53.544;10.226;2022-07-18T06:53:27;18.10;99.90
4725;DHT22;2376;53.544;10.226;2022-07-18T06:55:54;18.10;99.90
4725;DHT22;2376;53.544;10.226;2022-07-18T06:58:21;18.20;99.90
4725;DHT22;2376;53.544;10.226;2022-07-18T07:00:48;18.30;99.90
4725;DHT22;2376;53.544;10.226;2022-07-18T07:03:15;18.30;99.90
4725;DHT22;2376;53.544;10.226;2022-07-18T07:05:43;18.40;99.90
4725;DHT22;2376;53.544;10.226;2022-07-18T07:08:10;18.40;99.90
4725;DHT22;2376;53.544;10.226;2022-07-18T07:10:37;18.50;99.90
4725;DHT22;2376;53.544;10.226;2022-07-18T07:13:04;18.60;99.90
4725;DHT22;2376;53.544;10.226;2022-07-18T07:15:31;18.60;99.90
4725;DHT22;2376;53.544;10.226;2022-07-18T07:17:58;18.60;99.90
4725;DHT22;2376;53.544;10.226;2022-07-18T07:20:24;18.80;99.90
4725;DHT22;2376;53.544;10.226;2022-07-18T07:22:53;18.80;99.90
4725;DHT22;2376;53.544;10.226;2022-07-18T07:25:22;18.90;99.90
4725;DHT22;2376;53.544;10.226;2022-07-18T07:27:49;18.90;99.90
4725;DHT22;2376;53.544;10.226;2022-07-18T07:30:16;19.00;99.90
4725;DHT22;2376;53.544;10.226;2022-07-18T07:32:44;19.10;99.90
4725;DHT22;2376;53.544;10.226;2022-07-18T07:35:13;19.20;99.90
4725;DHT22;2376;53.544;10.226;2022-07-18T07:37:41;19.30;99.90
4725;DHT22;2376;53.544;10.226;2022-07-18T07:40:10;19.40;99.90
4725;DHT22;2376;53.544;10.226;2022-07-18T07:42:37;19.60;99.90
4725;DHT22;2376;53.544;10.226;2022-07-18T07:45:04;19.70;99.90
4725;DHT22;2376;53.544;10.226;2022-07-18T07:47:31;19.90;99.90
4725;DHT22;2376;53.544;10.226;2022-07-18T07:49:58;20.00;99.90
4725;DHT22;2376;53.544;10.226;2022-07-18T07:52:25;20.10;99.90
4725;DHT22;2376;53.544;10.226;2022-07-18T07:54:53;20.20;99.90
4725;DHT22;2376;53.544;10.226;2022-07-18T07:57:22;20.40;99.90
4725;DHT22;2376;53.544;10.226;2022-07-18T07:59:48;20.40;99.90
4725;DHT22;2376;53.544;10.226;2022-07-18T08:02:15;20.50;99.90
4725;DHT22;2376;53.544;10.226;2022-07-18T08:04:42;20.60;99.90
4725;DHT22;2376;53.544;10.226;2022-07-18T08:07:09;20.70;99.90
4725;DHT22;2376;53.544;10.226;2022-07-18T08:09:36;20.80;99.90
4725;DHT22;2376;53.544;10.226;2022-07-18T08:12:04;21.00;99.90
4725;DHT22;2376;53.544;10.226;2022-07-18T08:14:32;21.10;99.90
4725;DHT22;2376;53.544;10.226;2022-07-18T08:17:00;21.30;99.90
4725;DHT22;2376;53.544;10.226;2022-07-18T08:19:27;21.40;99.90
4725;DHT22;2376;53.544;10.226;2022-07-18T08:21:53;21.40;99.90
4725;DHT22;2376;53.544;10.226;2022-07-18T08:24:20;21.50;99.90
4725;DHT22;2376;53.544;10.226;2022-07-18T08:26:47;21.70;99.90
4725;DHT22;2376;53.544;10.226;2022-07-18T08:29:13;21.80;99.90
4725;DHT22;2376;53.544;10.226;2022-07-18T08:31:41;21.90;99.90
4725;DHT22;2376;53.544;10.226;2022-07-18T08:34:08;22.00;99.90
4725;DHT22;2376;53.544;10.226;2022-07-18T08:36:35;22.20;99.90
4725;DHT22;2376;53.544;10.226;2022-07-18T08:39:01;22.40;99.90
4725;DHT22;2376;53.544;10.226;2022-07-18T08:41:28;22.50;99.90
4725;DHT22;2376;53.544;10.226;2022-07-18T08:43:55;22.60;99.90
4725;DHT22;2376;53.544;10.226;2022-07-18T08:46:22;22.70;99.90
4725;DHT22;2376;53.544;10.226;2022-07-18T08:48:51;22.80;99.90
4725;DHT22;2376;53.544;10.226;2022-07-18T08:51:19;22.90;99.90
4725;DHT22;2376;53.544;10.226;2022-07-18T08:53:47;23.00;99.90
4725;DHT22;2376;53.544;10.226;2022-07-18T08:56:16;23.00;99.90
4725;DHT22;2376;53.544;10.226;2022-07-18T08:58:43;23.10;99.90
4725;DHT22;2376;53.544;10.226;2022-07-18T09:01:10;23.20;99.90
4725;DHT22;2376;53.544;10.226;2022-07-18T09:03:36;23.30;99.90
4725;DHT22;2376;53.544;10.226;2022-07-18T09:06:06;23.40;99.90
4725;DHT22;2376;53.544;10.226;2022-07-18T09:08:33;23.40;99.90
4725;DHT22;2376;53.544;10.226;2022-07-18T09:11:01;23.50;99.90
4725;DHT22;2376;53.544;10.226;2022-07-18T09:13:36;23.60;99.90
4725;DHT22;2376;53.544;10.226;2022-07-18T09:16:04;23.60;99.90
4725;DHT22;2376;53.544;10.226;2022-07-18T09:18:33;23.80;99.90
4725;DHT22;2376;53.544;10.226;2022-07-18T09:21:01;23.90;99.90
4725;DHT22;2376;53.544;10.226;2022-07-18T09:23:31;23.90;99.30
4725;DHT22;2376;53.544;10.226;2022-07-18T09:25:58;24.00;99.40
4725;DHT22;2376;53.544;10.226;2022-07-18T09:28:26;24.10;99.40
4725;DHT22;2376;53.544;10.226;2022-07-18T09:30:53;24.10;99.40
4725;DHT22;2376;53.544;10.226;2022-07-18T09:33:20;24.30;99.50
4725;DHT22;2376;53.544;10.226;2022-07-18T09:35:48;24.40;98.20
4725;DHT22;2376;53.544;10.226;2022-07-18T09:38:17;24.40;97.10
4725;DHT22;2376;53.544;10.226;2022-07-18T09:40:47;24.40;97.50
4725;DHT22;2376;53.544;10.226;2022-07-18T09:43:15;24.50;97.30
4725;DHT22;2376;53.544;10.226;2022-07-18T09:45:44;24.50;96.50
4725;DHT22;2376;53.544;10.226;2022-07-18T09:48:14;24.50;95.00
4725;DHT22;2376;53.544;10.226;2022-07-18T09:50:43;24.50;95.20
4725;DHT22;2376;53.544;10.226;2022-07-18T09:53:16;24.60;95.80
4725;DHT22;2376;53.544;10.226;2022-07-18T09:55:48;24.70;95.70
4725;DHT22;2376;53.544;10.226;2022-07-18T09:58:17;24.80;96.10
4725;DHT22;2376;53.544;10.226;2022-07-18T10:00:44;24.80;96.20
4725;DHT22;2376;53.544;10.226;2022-07-18T10:03:11;25.00;95.70
4725;DHT22;2376;53.544;10.226;2022-07-18T10:05:39;25.00;95.40
4725;DHT22;2376;53.544;10.226;2022-07-18T10:08:07;25.10;94.80
4725;DHT22;2376;53.544;10.226;2022-07-18T10:10:34;25.10;94.20
4725;DHT22;2376;53.544;10.226;2022-07-18T10:13:04;25.20;94.50
4725;DHT22;2376;53.544;10.226;2022-07-18T10:15:33;25.20;92.70
4725;DHT22;2376;53.544;10.226;2022-07-18T10:18:01;25.30;93.20
4725;DHT22;2376;53.544;10.226;2022-07-18T10:20:31;25.40;92.90
4725;DHT22;2376;53.544;10.226;2022-07-18T10:23:02;25.40;93.00
4725;DHT22;2376;53.544;10.226;2022-07-18T10:25:32;25.50;92.60
4725;DHT22;2376;53.544;10.226;2022-07-18T10:28:05;25.50;91.50
4725;DHT22;2376;53.544;10.226;2022-07-18T10:30:34;25.60;91.20
4725;DHT22;2376;53.544;10.226;2022-07-18T10:33:02;25.50;90.30
4725;DHT22;2376;53.544;10.226;2022-07-18T10:35:58;25.50;91.00
4725;DHT22;2376;53.544;10.226;2022-07-18T10:38:25;25.50;90.00
4725;DHT22;2376;53.544;10.226;2022-07-18T10:41:04;25.60;89.70
4725;DHT22;2376;53.544;10.226;2022-07-18T10:43:35;25.60;89.50
4725;DHT22;2376;53.544;10.226;2022-07-18T10:46:04;25.70;88.30
4725;DHT22;2376;53.544;10.226;2022-07-18T10:48:53;25.80;89.80
4725;DHT22;2376;53.544;10.226;2022-07-18T10:51:28;26.00;88.20
4725;DHT22;2376;53.544;10.226;2022-07-18T10:54:09;26.10;86.60
4725;DHT22;2376;53.544;10.226;2022-07-18T10:57:08;26.10;85.50
4725;DHT22;2376;53.544;10.226;2022-07-18T10:59:37;26.30;82.10
4725;DHT22;2376;53.544;10.226;2022-07-18T11:02:07;26.30;81.50
4725;DHT22;2376;53.544;10.226;2022-07-18T11:04:38;26.40;83.60
4725;DHT22;2376;53.544;10.226;2022-07-18T11:07:11;26.50;82.60
4725;DHT22;2376;53.544;10.226;2022-07-18T11:09:41;26.60;82.40
4725;DHT22;2376;53.544;10.226;2022-07-18T11:12:22;26.60;82.50
4725;DHT22;2376;53.544;10.226;2022-07-18T11:15:08;26.70;81.60
4725;DHT22;2376;53.544;10.226;2022-07-18T11:18:02;26.70;77.40
4725;DHT22;2376;53.544;10.226;2022-07-18T11:20:36;26.60;79.60
4725;DHT22;2376;53.544;10.226;2022-07-18T11:23:05;26.60;79.20
4725;DHT22;2376;53.544;10.226;2022-07-18T11:25:39;26.70;80.40
4725;DHT22;2376;53.544;10.226;2022-07-18T11:28:07;26.70;79.20
4725;DHT22;2376;53.544;10.226;2022-07-18T11:30:36;26.70;78.70
4725;DHT22;2376;53.544;10.226;2022-07-18T11:33:03;26.80;80.80
4725;DHT22;2376;53.544;10.226;2022-07-18T11:35:30;26.80;79.40
4725;DHT22;2376;53.544;10.226;2022-07-18T11:38:03;26.90;79.30
4725;DHT22;2376;53.544;10.226;2022-07-18T11:40:30;26.80;79.20
4725;DHT22;2376;53.544;10.226;2022-07-18T11:42:57;26.80;76.70
4725;DHT22;2376;53.544;10.226;2022-07-18T11:45:24;26.80;77.90
4725;DHT22;2376;53.544;10.226;2022-07-18T11:47:52;26.70;77.90
4725;DHT22;2376;53.544;10.226;2022-07-18T11:50:33;26.70;78.90
4725;DHT22;2376;53.544;10.226;2022-07-18T11:53:00;26.80;78.30
4725;DHT22;2376;53.544;10.226;2022-07-18T11:55:32;26.80;77.90
4725;DHT22;2376;53.544;10.226;2022-07-18T11:58:06;26.80;76.80
4725;DHT22;2376;53.544;10.226;2022-07-18T12:00:32;26.80;76.50
4725;DHT22;2376;53.544;10.226;2022-07-18T12:03:00;26.90;78.20
4725;DHT22;2376;53.544;10.226;2022-07-18T12:05:31;26.90;77.20
4725;DHT22;2376;53.544;10.226;2022-07-18T12:07:58;26.80;77.80
4725;DHT22;2376;53.544;10.226;2022-07-18T12:10:25;26.90;77.90
4725;DHT22;2376;53.544;10.226;2022-07-18T12:12:53;26.90;77.70
4725;DHT22;2376;53.544;10.226;2022-07-18T12:15:20;26.80;76.10
4725;DHT22;2376;53.544;10.226;2022-07-18T12:17:48;26.80;77.40
4725;DHT22;2376;53.544;10.226;2022-07-18T12:20:19;26.90;75.40
4725;DHT22;2376;53.544;10.226;2022-07-18T12:23:09;26.80;74.60
4725;DHT22;2376;53.544;10.226;2022-07-18T12:25:55;27.00;74.20
4725;DHT22;2376;53.544;10.226;2022-07-18T12:28:25;27.10;73.10
4725;DHT22;2376;53.544;10.226;2022-07-18T12:30:52;27.10;71.30
4725;DHT22;2376;53.544;10.226;2022-07-18T12:33:19;27.20;71.50
4725;DHT22;2376;53.544;10.226;2022-07-18T12:35:54;27.30;69.60
4725;DHT22;2376;53.544;10.226;2022-07-18T12:38:22;27.40;69.40
4725;DHT22;2376;53.544;10.226;2022-07-18T12:40:51;27.40;67.40
4725;DHT22;2376;53.544;10.226;2022-07-18T12:43:23;27.40;68.20
4725;DHT22;2376;53.544;10.226;2022-07-18T12:45:51;27.50;67.70
4725;DHT22;2376;53.544;10.226;2022-07-18T12:48:18;27.50;67.10
4725;DHT22;2376;53.544;10.226;2022-07-18T12:50:53;27.60;67.60
4725;DHT22;2376;53.544;10.226;2022-07-18T12:53:21;27.60;66.50
4725;DHT22;2376;53.544;10.226;2022-07-18T12:55:47;27.70;65.70
4725;DHT22;2376;53.544;10.226;2022-07-18T12:58:14;27.80;67.20
4725;DHT22;2376;53.544;10.226;2022-07-18T13:00:41;28.00;67.20
4725;DHT22;2376;53.544;10.226;2022-07-18T13:03:09;28.10;64.10
4725;DHT22;2376;53.544;10.226;2022-07-18T13:05:36;28.20;64.50
4725;DHT22;2376;53.544;10.226;2022-07-18T13:08:04;28.40;66.10
4725;DHT22;2376;53.544;10.226;2022-07-18T13:10:33;28.40;64.70
4725;DHT22;2376;53.544;10.226;2022-07-18T13:13:01;28.60;63.60
4725;DHT22;2376;53.544;10.226;2022-07-18T13:15:28;28.70;62.30
4725;DHT22;2376;53.544;10.226;2022-07-18T13:17:55;28.90;60.80
4725;DHT22;2376;53.544;10.226;2022-07-18T13:20:21;28.90;61.00
4725;DHT22;2376;53.544;10.226;2022-07-18T13:22:48;29.00;60.60
4725;DHT22;2376;53.544;10.226;2022-07-18T13:25:16;28.90;60.50
4725;DHT22;2376;53.544;10.226;2022-07-18T13:27:43;29.00;60.20
4725;DHT22;2376;53.544;10.226;2022-07-18T13:30:11;29.00;57.60
4725;DHT22;2376;53.544;10.226;2022-07-18T13:32:38;29.00;57.20
4725;DHT22;2376;53.544;10.226;2022-07-18T13:35:05;28.90;57.90
4725;DHT22;2376;53.544;10.226;2022-07-18T13:37:32;28.90;58.70
4725;DHT22;2376;53.544;10.226;2022-07-18T13:39:59;28.80;58.40
4725;DHT22;2376;53.544;10.226;2022-07-18T13:42:27;28.80;59.40
4725;DHT22;2376;53.544;10.226;2022-07-18T13:44:53;28.80;57.30
4725;DHT22;2376;53.544;10.226;2022-07-18T13:47:20;28.70;57.70
4725;DHT22;2376;53.544;10.226;2022-07-18T13:49:47;28.70;58.90
4725;DHT22;2376;53.544;10.226;2022-07-18T13:52:13;28.70;58.20
4725;DHT22;2376;53.544;10.226;2022-07-18T13:54:40;28.60;58.20
4725;DHT22;2376;53.544;10.226;2022-07-18T13:57:08;28.70;57.60
4725;DHT22;2376;53.544;10.226;2022-07-18T13:59:36;28.70;58.00
4725;DHT22;2376;53.544;10.226;2022-07-18T14:02:02;28.70;58.10
4725;DHT22;2376;53.544;10.226;2022-07-18T14:04:29;28.70;57.40
4725;DHT22;2376;53.544;10.226;2022-07-18T14:06:56;28.70;56.90
4725;DHT22;2376;53.544;10.226;2022-07-18T14:09:22;28.70;57.00
4725;DHT22;2376;53.544;10.226;2022-07-18T14:11:49;28.60;57.10
4725;DHT22;2376;53.544;10.226;2022-07-18T14:14:16;28.70;57.50
4725;DHT22;2376;53.544;10.226;2022-07-18T14:16:44;28.60;57.00
4725;DHT22;2376;53.544;10.226;2022-07-18T14:19:10;28.60;57.10
4725;DHT22;2376;53.544;10.226;2022-07-18T14:21:38;28.60;56.40
4725;DHT22;2376;53.544;10.226;2022-07-18T14:24:05;28.70;56.70
4725;DHT22;2376;53.544;10.226;2022-07-18T14:26:32;28.70;57.00
4725;DHT22;2376;53.544;10.226;2022-07-18T14:28:58;28.80;57.90
4725;DHT22;2376;53.544;10.226;2022-07-18T14:31:25;28.90;56.20
4725;DHT22;2376;53.544;10.226;2022-07-18T14:33:53;29.00;55.60
4725;DHT22;2376;53.544;10.226;2022-07-18T14:36:19;29.00;55.50
4725;DHT22;2376;53.544;10.226;2022-07-18T14:38:46;29.10;55.10
4725;DHT22;2376;53.544;10.226;2022-07-18T14:41:13;29.20;54.40
4725;DHT22;2376;53.544;10.226;2022-07-18T14:43:40;29.30;54.50
4725;DHT22;2376;53.544;10.226;2022-07-18T14:46:06;29.40;53.50
4725;DHT22;2376;53.544;10.226;2022-07-18T14:48:33;29.50;52.40
4725;DHT22;2376;53.544;10.226;2022-07-18T14:51:01;29.60;51.00
4725;DHT22;2376;53.544;10.226;2022-07-18T14:53:28;29.60;50.10
4725;DHT22;2376;53.544;10.226;2022-07-18T14:55:55;29.70;49.20
4725;DHT22;2376;53.544;10.226;2022-07-18T14:58:22;29.70;47.60
4725;DHT22;2376;53.544;10.226;2022-07-18T15:00:48;29.80;47.90
4725;DHT22;2376;53.544;10.226;2022-07-18T15:03:15;30.00;48.30
4725;DHT22;2376;53.544;10.226;2022-07-18T15:05:42;30.10;48.40
4725;DHT22;2376;53.544;10.226;2022-07-18T15:08:10;30.10;47.80
4725;DHT22;2376;53.544;10.226;2022-07-18T15:10:37;30.20;48.30
4725;DHT22;2376;53.544;10.226;2022-07-18T15:13:03;30.20;48.10
4725;DHT22;2376;53.544;10.226;2022-07-18T15:15:31;30.20;48.30
4725;DHT22;2376;53.544;10.226;2022-07-18T15:17:58;30.30;48.40
4725;DHT22;2376;53.544;10.226;2022-07-18T15:20:24;30.30;48.60
4725;DHT22;2376;53.544;10.226;2022-07-18T15:22:51;30.30;49.20
4725;DHT22;2376;53.544;10.226;2022-07-18T15:25:19;30.20;49.60
4725;DHT22;2376;53.544;10.226;2022-07-18T15:27:46;30.20;48.00
4725;DHT22;2376;53.544;10.226;2022-07-18T15:30:12;30.20;47.50
4725;DHT22;2376;53.544;10.226;2022-07-18T15:32:40;30.10;47.70
4725;DHT22;2376;53.544;10.226;2022-07-18T15:35:07;30.00;47.90
4725;DHT22;2376;53.544;10.226;2022-07-18T15:37:34;29.90;48.80
4725;DHT22;2376;53.544;10.226;2022-07-18T15:40:00;29.90;48.60
4725;DHT22;2376;53.544;10.226;2022-07-18T15:42:28;29.90;48.00
4725;DHT22;2376;53.544;10.226;2022-07-18T15:44:55;29.90;48.20
4725;DHT22;2376;53.544;10.226;2022-07-18T15:47:22;29.90;49.20
4725;DHT22;2376;53.544;10.226;2022-07-18T15:49:48;30.10;49.50